Time;durP1;ratioP1;P1;durP2;ratioP2;P2;SDS_P1;SDS_P2;PMS_P1;PMS_P2;Temp;Humidity;BMP_temperature;BMP_pressure;BME280_temperature;BME280_humidity;BME280_pressure;Samples;Min_cycle;Max_cycle;Signal;HPM_P1;HPM_P2
2022/09/16 00:00:13;;;;;;;9.15;2.55;;;;;;;6.88;100.00;101678.59;4976880;28;20037;-74
2022/09/16 00:02:38;;;;;;;8.10;2.53;;;;;;;6.75;100.00;101660.94;4989537;28;20023;-76
2022/09/16 00:05:04;;;;;;;3.10;2.05;;;;;;;6.72;100.00;101677.22;5008225;28;20021;-74
2022/09/16 00:07:30;;;;;;;8.10;2.47;;;;;;;6.59;100.00;101664.03;4992165;28;20033;-77
2022/09/16 00:09:56;;;;;;;5.65;2.80;;;;;;;6.42;100.00;101651.22;4991539;28;20120;-76
2022/09/16 00:12:21;;;;;;;7.22;2.38;;;;;;;6.47;100.00;101674.88;4972949;28;20038;-75
2022/09/16 00:14:47;;;;;;;5.30;2.50;;;;;;;6.35;100.00;101666.91;4994073;28;20392;-75
2022/09/16 00:17:13;;;;;;;8.20;2.33;;;;;;;6.30;100.00;101655.75;4974427;28;20492;-75
2022/09/16 00:19:38;;;;;;;3.35;2.10;;;;;;;6.28;100.00;101659.53;4978504;28;20044;-76
2022/09/16 00:22:04;;;;;;;3.30;1.80;;;;;;;6.18;100.00;101658.56;4974934;28;20080;-75
2022/09/16 00:24:30;;;;;;;5.97;2.30;;;;;;;6.14;100.00;101674.00;4972681;28;20039;-75
2022/09/16 00:26:56;;;;;;;8.13;2.55;;;;;;;6.22;100.00;101682.25;4987717;28;20851;-75
2022/09/16 00:29:21;;;;;;;5.72;2.30;;;;;;;6.36;100.00;101670.44;4980518;28;20029;-76
2022/09/16 00:31:47;;;;;;;5.10;2.72;;;;;;;6.50;100.00;101683.47;4991035;28;20062;-75
2022/09/16 00:34:13;;;;;;;6.10;2.50;;;;;;;6.72;100.00;101695.94;5003098;28;20523;-75
2022/09/16 00:36:38;;;;;;;8.90;2.40;;;;;;;6.79;100.00;101696.25;5004985;28;20027;-75
2022/09/16 00:39:04;;;;;;;9.55;2.95;;;;;;;6.84;100.00;101696.72;4975190;28;20369;-75
2022/09/16 00:41:32;;;;;;;4.72;2.10;;;;;;;7.00;100.00;101689.09;4991820;28;20034;-76
2022/09/16 00:44:03;;;;;;;6.57;2.42;;;;;;;7.15;100.00;101697.66;4990468;28;20460;-78
2022/09/16 00:46:38;;;;;;;9.70;2.80;;;;;;;7.14;100.00;101698.63;5006670;28;20113;-75
2022/09/16 00:49:09;;;;;;;6.28;2.45;;;;;;;7.15;100.00;101702.16;4995260;28;20081;-75
2022/09/16 00:51:36;;;;;;;5.30;2.30;;;;;;;7.04;100.00;101705.75;5007175;28;20476;-75
2022/09/16 00:54:03;;;;;;;7.53;2.55;;;;;;;6.81;100.00;101699.66;4987829;28;20056;-75
2022/09/16 00:56:34;;;;;;;6.68;2.28;;;;;;;6.69;100.00;101704.19;4999474;28;20468;-74
2022/09/16 00:59:16;;;;;;;6.60;2.28;;;;;;;6.50;100.00;101693.31;5019245;28;20498;-75
2022/09/16 01:01:43;;;;;;;8.20;2.47;;;;;;;6.42;100.00;101695.78;5001361;28;20487;-75
2022/09/16 01:04:14;;;;;;;7.72;3.05;;;;;;;6.26;100.00;101683.69;5005622;28;20034;-75
2022/09/16 01:06:40;;;;;;;5.95;2.50;;;;;;;6.19;100.00;101697.66;4987558;28;20073;-75
2022/09/16 01:09:08;;;;;;;5.20;2.40;;;;;;;6.13;100.00;101693.66;5003756;28;20459;-74
2022/09/16 01:11:34;;;;;;;8.30;1.85;;;;;;;6.12;100.00;101702.66;5012348;28;20037;-75
2022/09/16 01:14:52;;;;;;;5.25;2.17;;;;;;;6.12;100.00;101705.31;4988406;28;20033;-74
2022/09/16 01:17:00;;;;;;;7.13;2.38;;;;;;;5.92;100.00;101685.53;4998377;28;20481;-75
2022/09/16 01:19:43;;;;;;;5.18;2.47;;;;;;;5.89;100.00;101693.78;4987554;28;20045;-74
2022/09/16 01:22:43;;;;;;;6.10;2.17;;;;;;;5.83;100.00;101696.94;4977751;28;20044;-76
2022/09/16 01:25:30;;;;;;;5.35;1.90;;;;;;;5.64;100.00;101695.72;5003905;28;20127;-74
2022/09/16 01:28:20;;;;;;;9.05;2.47;;;;;;;5.61;100.00;101693.31;5001639;28;20041;-75
2022/09/16 01:30:55;;;;;;;9.20;1.85;;;;;;;5.55;100.00;101695.59;5004226;28;20113;-75
2022/09/16 01:33:50;;;;;;;6.10;2.22;;;;;;;5.64;100.00;101705.56;5001235;28;20054;-74
2022/09/16 01:36:24;;;;;;;6.57;2.42;;;;;;;5.75;100.00;101704.72;5003734;28;20571;-75
2022/09/16 01:39:07;;;;;;;4.43;1.83;;;;;;;5.68;100.00;101697.16;4994966;28;20174;-76
2022/09/16 01:42:00;;;;;;;7.50;2.70;;;;;;;5.40;100.00;101662.97;5005869;28;20056;-75
2022/09/16 01:44:28;;;;;;;6.97;2.28;;;;;;;5.50;100.00;101698.63;5030399;28;20034;-75
2022/09/16 01:47:10;;;;;;;8.88;2.20;;;;;;;5.42;100.00;101701.03;4991407;28;20479;-74
2022/09/16 01:49:46;;;;;;;7.78;2.45;;;;;;;5.50;100.00;101706.63;5005451;28;20030;-75
2022/09/16 01:52:11;;;;;;;6.32;2.50;;;;;;;5.43;100.00;101681.41;4990023;28;20036;-76
2022/09/16 01:55:05;;;;;;;4.43;2.35;;;;;;;5.58;100.00;101698.03;4986581;28;20116;-74
2022/09/16 01:57:43;;;;;;;9.90;2.60;;;;;;;5.72;100.00;101701.31;5003279;28;20030;-74
2022/09/16 02:00:12;;;;;;;6.63;3.50;;;;;;;5.88;100.00;101700.94;5007798;28;20036;-75
2022/09/16 02:02:46;;;;;;;10.88;3.67;;;;;;;6.10;100.00;101694.75;4984813;28;20480;-76
2022/09/16 02:05:17;;;;;;;5.60;2.67;;;;;;;6.41;100.00;101686.94;4999710;28;20030;-74
2022/09/16 02:07:48;;;;;;;7.60;2.95;;;;;;;6.79;100.00;101690.91;5004745;28;20034;-75
2022/09/16 02:10:47;;;;;;;8.00;2.85;;;;;;;7.14;100.00;101692.44;4988082;28;20037;-77
2022/09/16 02:13:31;;;;;;;10.02;3.10;;;;;;;7.46;100.00;101705.72;5008246;28;20435;-74
2022/09/16 02:16:01;;;;;;;6.05;2.85;;;;;;;7.58;100.00;101703.81;4986316;28;20113;-77
2022/09/16 02:18:30;;;;;;;8.65;3.47;;;;;;;7.54;100.00;101692.56;4972753;28;20095;-75
2022/09/16 02:20:56;;;;;;;6.47;2.97;;;;;;;7.57;100.00;101696.75;4987513;28;20058;-75
2022/09/16 02:23:26;;;;;;;4.40;1.98;;;;;;;7.59;100.00;101687.63;4972616;28;20068;-77
2022/09/16 02:25:53;;;;;;;12.80;2.88;;;;;;;7.83;100.00;101706.06;5005335;28;20041;-75
2022/09/16 02:28:24;;;;;;;7.45;2.60;;;;;;;7.95;100.00;101701.44;4992375;28;20029;-75
2022/09/16 02:30:52;;;;;;;5.72;2.30;;;;;;;8.13;100.00;101707.00;5021266;28;20041;-75
2022/09/16 02:33:18;;;;;;;5.75;2.30;;;;;;;8.18;100.00;101706.56;4986839;28;20030;-75
2022/09/16 02:35:47;;;;;;;9.65;2.10;;;;;;;8.13;100.00;101704.34;5022853;28;20091;-75
2022/09/16 02:38:21;;;;;;;11.65;2.60;;;;;;;8.00;100.00;101698.38;5004857;28;20047;-75
2022/09/16 02:40:51;;;;;;;6.05;2.40;;;;;;;7.89;100.00;101697.47;5001784;28;20042;-75
2022/09/16 02:43:16;;;;;;;8.77;2.40;;;;;;;7.69;100.00;101701.06;4989806;28;20093;-75
2022/09/16 02:46:03;;;;;;;5.75;2.28;;;;;;;7.56;100.00;101705.78;5005390;28;20026;-73
2022/09/16 02:48:44;;;;;;;10.07;2.60;;;;;;;7.32;100.00;101704.22;4991978;28;20037;-72
2022/09/16 02:51:37;;;;;;;7.38;2.30;;;;;;;7.14;100.00;101709.31;5021629;28;20037;-75
2022/09/16 02:54:29;;;;;;;7.38;2.67;;;;;;;6.85;100.00;101693.06;5002986;28;20033;-76
2022/09/16 02:56:55;;;;;;;7.45;2.30;;;;;;;6.72;100.00;101703.09;4980485;28;20026;-75
2022/09/16 02:59:21;;;;;;;13.57;2.45;;;;;;;6.64;100.00;101706.38;4983206;28;20070;-76
2022/09/16 03:01:47;;;;;;;7.47;1.83;;;;;;;6.49;100.00;101708.53;4969778;28;20121;-77
2022/09/16 03:04:15;;;;;;;5.50;2.55;;;;;;;6.40;100.00;101711.94;4985699;28;20076;-75
2022/09/16 03:06:41;;;;;;;4.85;2.00;;;;;;;6.36;100.00;101715.84;5002902;28;20108;-75
2022/09/16 03:09:12;;;;;;;6.93;2.10;;;;;;;6.25;100.00;101713.19;4971333;28;20552;-77
2022/09/16 03:12:02;;;;;;;7.07;2.42;;;;;;;6.27;100.00;101711.22;5021781;28;20037;-76
2022/09/16 03:14:36;;;;;;;4.90;2.20;;;;;;;6.23;100.00;101691.94;4989520;28;20026;-75
2022/09/16 03:17:23;;;;;;;4.65;2.75;;;;;;;6.26;100.00;101714.88;5003359;28;20127;-76
2022/09/16 03:20:24;;;;;;;7.63;2.33;;;;;;;6.27;100.00;101717.44;5001966;28;20034;-75
2022/09/16 03:23:18;;;;;;;6.25;2.08;;;;;;;6.06;100.00;101682.63;4973151;28;20038;-77
2022/09/16 03:25:52;;;;;;;7.80;2.17;;;;;;;6.30;100.00;101700.31;4982234;28;20025;-76
2022/09/16 03:28:40;;;;;;;5.00;2.00;;;;;;;6.33;100.00;101711.59;4976891;28;21025;-76
2022/09/16 03:31:07;;;;;;;10.40;1.95;;;;;;;6.30;100.00;101716.34;5004120;28;20038;-75
2022/09/16 03:33:42;;;;;;;6.03;1.98;;;;;;;6.28;100.00;101719.13;4987141;28;20037;-76
2022/09/16 03:36:11;;;;;;;7.93;2.30;;;;;;;6.46;100.00;101716.78;5003313;28;20026;-75
2022/09/16 03:38:38;;;;;;;6.50;2.33;;;;;;;6.42;100.00;101722.50;5001601;28;20476;-77
2022/09/16 03:41:05;;;;;;;4.75;1.80;;;;;;;6.39;100.00;101721.78;5007589;28;20056;-75
2022/09/16 03:43:30;;;;;;;4.93;2.20;;;;;;;6.22;100.00;101719.63;4998615;28;20564;-76
2022/09/16 03:45:56;;;;;;;5.07;1.88;;;;;;;6.09;100.00;101718.94;5006509;28;20145;-75
2022/09/16 03:48:22;;;;;;;8.15;2.40;;;;;;;5.95;100.00;101733.34;5005222;28;20540;-75
2022/09/16 03:50:48;;;;;;;5.00;2.47;;;;;;;5.83;100.00;101732.50;5004429;28;20075;-75
2022/09/16 03:53:13;;;;;;;4.93;1.88;;;;;;;5.76;100.00;101725.91;5003332;28;20112;-77
2022/09/16 03:55:39;;;;;;;9.88;2.50;;;;;;;5.61;100.00;101730.66;4984388;28;20060;-76
2022/09/16 03:58:04;;;;;;;5.82;2.38;;;;;;;5.58;100.00;101738.03;4984817;28;20087;-75
2022/09/16 04:00:30;;;;;;;5.55;2.20;;;;;;;5.62;100.00;101737.69;5004327;28;20030;-74
2022/09/16 04:03:04;;;;;;;3.83;1.67;;;;;;;5.52;100.00;101739.38;4969386;28;20129;-75
2022/09/16 04:05:30;;;;;;;3.03;1.63;;;;;;;5.24;100.00;101725.50;4982140;28;20042;-75
2022/09/16 04:07:56;;;;;;;4.25;1.65;;;;;;;5.21;100.00;101724.88;4995683;28;20038;-74
2022/09/16 04:10:22;;;;;;;3.63;1.73;;;;;;;5.16;100.00;101743.91;4987377;28;20046;-77
2022/09/16 04:12:47;;;;;;;3.90;1.73;;;;;;;5.04;100.00;101747.50;5002088;28;20033;-75
2022/09/16 04:15:13;;;;;;;2.25;1.27;;;;;;;4.91;100.00;101744.03;4968627;28;20389;-76
2022/09/16 04:17:39;;;;;;;3.78;1.90;;;;;;;4.75;100.00;101741.66;5001722;28;20033;-75
2022/09/16 04:20:06;;;;;;;3.90;1.90;;;;;;;4.73;100.00;101755.09;4989127;28;20412;-75
2022/09/16 04:22:32;;;;;;;4.85;1.92;;;;;;;4.68;100.00;101735.94;5007361;28;20392;-75
2022/09/16 04:24:58;;;;;;;4.63;1.58;;;;;;;4.68;100.00;101725.28;5004344;28;20034;-75
2022/09/16 04:27:23;;;;;;;3.63;1.75;;;;;;;4.62;100.00;101728.41;5004668;28;20091;-74
2022/09/16 04:29:49;;;;;;;5.68;1.52;;;;;;;4.55;100.00;101737.81;4991459;28;20030;-74
2022/09/16 04:32:15;;;;;;;3.25;1.77;;;;;;;4.45;100.00;101729.66;4975129;28;20442;-74
2022/09/16 04:34:42;;;;;;;4.93;2.03;;;;;;;4.50;100.00;101745.28;4976496;28;20383;-74
2022/09/16 04:37:13;;;;;;;4.68;1.70;;;;;;;4.51;100.00;101741.66;4974737;28;20083;-75
2022/09/16 04:39:38;;;;;;;3.70;1.42;;;;;;;4.48;100.00;101745.41;5010152;28;20032;-75
2022/09/16 04:42:05;;;;;;;3.33;1.70;;;;;;;4.35;100.00;101742.78;4993830;28;20037;-74
2022/09/16 04:44:31;;;;;;;3.45;1.60;;;;;;;4.32;100.00;101752.81;4976499;28;20029;-75
2022/09/16 04:46:57;;;;;;;5.97;2.00;;;;;;;4.27;100.00;101746.97;4974593;28;20049;-77
2022/09/16 04:49:23;;;;;;;4.70;1.80;;;;;;;4.36;100.00;101751.63;5007519;28;20037;-76
2022/09/16 04:51:49;;;;;;;4.80;1.63;;;;;;;4.47;100.00;101754.34;4991230;28;20037;-74
2022/09/16 04:54:15;;;;;;;3.92;1.75;;;;;;;4.58;100.00;101751.75;4990917;28;20115;-74
2022/09/16 04:56:40;;;;;;;4.43;1.75;;;;;;;4.79;100.00;101753.78;4974765;28;20543;-75
2022/09/16 04:59:06;;;;;;;3.05;1.30;;;;;;;5.05;100.00;101754.50;5006469;28;20036;-74
2022/09/16 05:01:34;;;;;;;3.83;1.80;;;;;;;5.21;100.00;101755.06;4987255;28;20492;-74
2022/09/16 05:04:02;;;;;;;6.32;1.75;;;;;;;5.41;100.00;101752.69;5000820;28;20365;-74
2022/09/16 05:06:32;;;;;;;4.60;1.25;;;;;;;5.51;100.00;101756.34;4993234;28;20357;-75
2022/09/16 05:09:01;;;;;;;4.38;1.85;;;;;;;5.64;100.00;101769.59;5004452;28;20087;-74
2022/09/16 05:11:32;;;;;;;3.78;1.75;;;;;;;5.68;100.00;101769.22;5008726;28;20033;-75
2022/09/16 05:14:00;;;;;;;3.17;1.65;;;;;;;5.75;100.00;101763.44;4976236;28;20034;-74
2022/09/16 05:16:27;;;;;;;3.60;1.73;;;;;;;5.82;100.00;101762.81;4985500;28;20502;-74
2022/09/16 05:18:55;;;;;;;4.18;1.38;;;;;;;5.75;100.00;101761.59;5004899;28;20025;-74
2022/09/16 05:21:22;;;;;;;4.75;1.80;;;;;;;5.78;100.00;101769.34;4988762;28;20134;-75
2022/09/16 05:23:49;;;;;;;3.35;1.77;;;;;;;5.78;100.00;101766.69;5000003;28;20029;-75
2022/09/16 05:26:18;;;;;;;4.82;1.67;;;;;;;5.86;100.00;101780.28;4990801;28;20061;-77
2022/09/16 05:28:44;;;;;;;3.20;1.42;;;;;;;5.91;100.00;101774.59;5003094;28;20022;-74
2022/09/16 05:31:22;;;;;;;2.22;1.23;;;;;;;6.01;100.00;101778.28;4982068;28;20396;-74
2022/09/16 05:33:55;;;;;;;3.30;1.58;;;;;;;6.03;100.00;101775.47;5010942;28;20056;-76
2022/09/16 05:36:21;;;;;;;4.07;1.70;;;;;;;6.18;100.00;101784.09;5008041;28;20025;-75
2022/09/16 05:38:47;;;;;;;4.57;1.45;;;;;;;6.31;100.00;101782.97;5004116;28;20038;-75
2022/09/16 05:41:13;;;;;;;6.57;2.33;;;;;;;6.52;100.00;101788.41;5004776;28;20038;-74
2022/09/16 05:43:39;;;;;;;6.32;2.10;;;;;;;6.71;100.00;101789.59;4994068;28;20040;-74
2022/09/16 05:46:10;;;;;;;4.40;1.92;;;;;;;6.70;100.00;101766.53;4987054;28;20036;-75
2022/09/16 05:48:35;;;;;;;4.65;2.00;;;;;;;6.84;100.00;101779.59;5004946;28;20045;-74
2022/09/16 05:51:05;;;;;;;5.93;2.08;;;;;;;6.85;100.00;101783.94;4968582;28;20420;-75
2022/09/16 05:53:32;;;;;;;4.53;2.40;;;;;;;6.87;100.00;101792.72;5006186;28;20026;-75
2022/09/16 05:56:00;;;;;;;6.97;2.67;;;;;;;6.88;100.00;101793.53;4999580;28;20068;-74
2022/09/16 05:58:30;;;;;;;6.35;2.30;;;;;;;6.91;100.00;101798.66;4970070;28;20472;-73
2022/09/16 06:01:04;;;;;;;7.70;3.03;;;;;;;6.91;100.00;101790.66;5020204;28;20038;-74
2022/09/16 06:03:31;;;;;;;8.55;3.83;;;;;;;7.00;100.00;101796.06;5009324;28;20033;-74
2022/09/16 06:06:04;;;;;;;3.38;1.77;;;;;;;6.92;100.00;101782.47;4987262;28;20088;-78
2022/09/16 06:08:32;;;;;;;8.18;3.13;;;;;;;6.97;100.00;101807.00;4985061;28;20038;-76
2022/09/16 06:11:03;;;;;;;4.13;1.88;;;;;;;6.88;100.00;101810.47;4998026;28;20022;-77
2022/09/16 06:13:28;;;;;;;7.80;2.72;;;;;;;6.64;100.00;101809.78;4992348;28;20040;-75
2022/09/16 06:15:54;;;;;;;3.50;1.65;;;;;;;6.42;100.00;101813.34;4987238;28;20050;-76
2022/09/16 06:18:21;;;;;;;8.55;3.75;;;;;;;6.22;100.00;101821.13;4992242;28;20471;-77
2022/09/16 06:20:47;;;;;;;4.40;2.33;;;;;;;5.98;100.00;101823.91;4981392;28;20439;-74
2022/09/16 06:23:13;;;;;;;7.10;2.08;;;;;;;5.83;100.00;101820.56;4987793;28;20423;-74
2022/09/16 06:25:39;;;;;;;5.50;1.95;;;;;;;5.67;100.00;101822.72;4972810;28;20069;-77
2022/09/16 06:28:04;;;;;;;2.30;1.30;;;;;;;5.37;100.00;101800.09;4981182;28;20040;-76
2022/09/16 06:30:30;;;;;;;4.90;1.48;;;;;;;5.51;100.00;101837.22;5007779;28;20065;-74
2022/09/16 06:32:56;;;;;;;3.20;1.90;;;;;;;5.42;100.00;101831.72;4973799;28;20329;-74
2022/09/16 06:35:21;;;;;;;6.20;2.25;;;;;;;5.40;100.00;101839.88;5008855;28;20053;-75
2022/09/16 06:37:47;;;;;;;3.92;1.48;;;;;;;5.27;100.00;101844.41;4973183;28;20049;-74
2022/09/16 06:40:13;;;;;;;4.70;1.90;;;;;;;5.27;100.00;101855.09;4994310;28;20068;-75
2022/09/16 06:42:38;;;;;;;7.03;1.95;;;;;;;5.25;100.00;101841.84;4999752;28;20109;-74
2022/09/16 06:45:05;;;;;;;5.57;1.77;;;;;;;5.46;100.00;101854.53;4996989;28;20030;-77
2022/09/16 06:47:32;;;;;;;3.78;1.63;;;;;;;5.58;100.00;101858.94;5017992;28;21916;-74
2022/09/16 06:50:03;;;;;;;3.05;1.70;;;;;;;5.75;100.00;101867.50;4984957;28;20030;-76
2022/09/16 06:52:29;;;;;;;5.32;1.90;;;;;;;5.82;100.00;101864.25;4988690;28;20550;-75
2022/09/16 06:54:54;;;;;;;7.25;2.38;;;;;;;5.82;100.00;101860.69;5003460;28;20021;-74
2022/09/16 06:57:22;;;;;;;5.10;2.35;;;;;;;5.88;100.00;101878.94;5003915;28;20080;-74
2022/09/16 06:59:51;;;;;;;7.97;2.40;;;;;;;5.84;100.00;101874.78;4985851;28;20464;-75
2022/09/16 07:02:18;;;;;;;7.32;2.10;;;;;;;5.88;100.00;101884.28;4972750;28;20404;-76
2022/09/16 07:04:44;;;;;;;5.25;2.10;;;;;;;5.93;100.00;101884.78;4996621;28;20452;-76
2022/09/16 07:07:11;;;;;;;5.13;1.75;;;;;;;6.08;100.00;101885.44;5000125;28;20033;-76
2022/09/16 07:09:38;;;;;;;4.53;2.35;;;;;;;6.13;100.00;101888.59;4986240;28;20038;-75
2022/09/16 07:12:04;;;;;;;5.70;2.05;;;;;;;6.10;100.00;101886.16;5004530;28;20125;-75
2022/09/16 07:14:31;;;;;;;6.65;2.20;;;;;;;6.18;100.00;101894.44;5006920;28;20045;-75
2022/09/16 07:16:57;;;;;;;4.78;2.10;;;;;;;6.20;100.00;101891.66;4969311;28;20040;-75
2022/09/16 07:19:24;;;;;;;5.03;1.95;;;;;;;6.29;100.00;101882.91;4988973;28;20029;-75
2022/09/16 07:21:50;;;;;;;8.38;2.38;;;;;;;6.46;100.00;101887.78;4977822;28;20038;-76
2022/09/16 07:24:16;;;;;;;8.73;3.55;;;;;;;6.68;100.00;101883.41;4984695;28;20045;-76
2022/09/16 07:26:43;;;;;;;15.48;3.60;;;;;;;6.86;100.00;101889.09;4998674;28;20160;-75
2022/09/16 07:29:13;;;;;;;8.85;4.18;;;;;;;7.01;100.00;101899.41;4969365;28;20053;-76
2022/09/16 07:31:39;;;;;;;9.10;4.15;;;;;;;7.00;100.00;101884.31;5002962;28;20077;-74
2022/09/16 07:34:07;;;;;;;9.18;4.38;;;;;;;7.94;100.00;101900.63;4996907;28;20069;-78
2022/09/16 07:36:46;;;;;;;10.45;4.68;;;;;;;8.58;100.00;101910.31;5002741;28;20036;-77
2022/09/16 07:39:14;;;;;;;13.98;5.50;;;;;;;10.59;100.00;101907.97;4998845;28;20511;-76
2022/09/16 07:41:42;;;;;;;12.77;5.60;;;;;;;12.46;100.00;101910.78;4998916;28;20034;-75
2022/09/16 07:44:11;;;;;;;11.50;5.03;;;;;;;13.61;95.33;101912.03;5001525;28;20065;-76
2022/09/16 07:46:36;;;;;;;18.35;5.97;;;;;;;14.42;90.65;101910.28;4997785;28;20309;-76
2022/09/16 07:49:04;;;;;;;12.13;6.82;;;;;;;15.20;86.55;101899.66;5007319;28;20396;-73
2022/09/16 07:51:30;;;;;;;11.25;6.65;;;;;;;15.90;84.04;101890.50;5005343;28;20049;-74
2022/09/16 07:53:59;;;;;;;14.40;7.45;;;;;;;16.94;81.87;101905.03;5007918;28;20034;-76
2022/09/16 07:56:27;;;;;;;16.20;8.13;;;;;;;17.92;77.67;101916.31;5008241;28;20033;-75
2022/09/16 07:58:54;;;;;;;12.88;7.03;;;;;;;18.54;73.88;101910.06;4991929;28;20034;-74
2022/09/16 08:01:20;;;;;;;13.30;6.15;;;;;;;19.06;70.75;101910.56;4994637;28;20123;-73
2022/09/16 08:03:46;;;;;;;17.20;5.68;;;;;;;19.40;67.70;101890.53;4995469;28;20068;-73
2022/09/16 08:06:16;;;;;;;13.77;5.43;;;;;;;20.28;65.83;101905.91;4976369;28;20147;-74
2022/09/16 08:08:42;;;;;;;9.60;5.60;;;;;;;20.72;61.96;101913.41;5004388;28;20026;-75
2022/09/16 08:11:09;;;;;;;12.30;4.40;;;;;;;21.18;60.61;101920.56;4989174;28;20038;-74
2022/09/16 08:13:36;;;;;;;12.32;3.90;;;;;;;21.53;59.38;101906.50;4978037;28;20866;-75
2022/09/16 08:16:04;;;;;;;10.63;4.38;;;;;;;21.53;55.99;101917.44;5006376;28;20069;-74
2022/09/16 08:18:30;;;;;;;8.02;3.60;;;;;;;21.25;55.97;101923.28;4978297;28;20124;-75
2022/09/16 08:20:56;;;;;;;7.75;3.35;;;;;;;21.21;57.51;101928.31;5009931;28;20136;-74
2022/09/16 08:23:22;;;;;;;7.82;3.47;;;;;;;21.59;55.40;101927.50;5000620;28;20484;-81
2022/09/16 08:25:59;;;;;;;7.50;3.50;;;;;;;21.46;54.73;101936.66;5008261;28;20033;-80
2022/09/16 08:28:25;;;;;;;8.98;3.67;;;;;;;21.47;54.71;101932.84;4990894;28;20040;-81
2022/09/16 08:30:51;;;;;;;10.75;3.25;;;;;;;21.92;53.96;101935.47;4984824;28;20030;-82
2022/09/16 08:33:20;;;;;;;9.55;5.13;;;;;;;22.34;52.92;101927.56;4988465;28;20038;-82
2022/09/16 08:35:46;;;;;;;7.57;3.90;;;;;;;23.11;52.71;101942.75;5008327;28;20430;-82
2022/09/16 08:38:12;;;;;;;4.57;3.00;;;;;;;23.33;49.38;101930.19;5011476;28;20369;-81
2022/09/16 08:40:43;;;;;;;6.90;3.05;;;;;;;23.58;49.39;101948.44;5007732;28;20033;-82
2022/09/16 08:43:38;;;;;;;5.45;3.30;;;;;;;23.91;47.50;101947.94;5006558;28;20049;-82
2022/09/16 08:46:19;;;;;;;5.70;2.78;;;;;;;24.32;49.16;101957.22;4993706;28;20038;-83
2022/09/16 08:48:52;;;;;;;6.63;2.40;;;;;;;25.28;46.52;101959.63;4985166;28;20049;-82
2022/09/16 08:51:19;;;;;;;3.08;1.80;;;;;;;25.55;45.26;101957.94;5006096;28;20080;-82
2022/09/16 08:54:01;;;;;;;3.72;1.80;;;;;;;25.59;43.10;101958.25;5007816;28;20379;-82
2022/09/16 08:56:29;;;;;;;6.70;2.20;;;;;;;25.91;43.84;101955.00;4992707;28;20034;-82
2022/09/16 08:58:59;;;;;;;2.42;1.40;;;;;;;26.29;39.24;101957.84;4994439;28;20061;-78
2022/09/16 09:02:15;;;;;;;3.58;1.75;;;;;;;26.27;40.17;101953.66;4972428;28;20096;-82
2022/09/16 09:04:40;;;;;;;5.65;1.55;;;;;;;26.30;40.72;101948.50;4971863;28;20172;-81
2022/09/16 09:07:59;;;;;;;2.40;1.30;;;;;;;26.73;36.27;101959.88;5008649;28;20030;-83
2022/09/16 09:10:48;;;;;;;1.90;1.27;;;;;;;26.29;38.12;101971.63;4935358;28;20146;-81
2022/09/16 09:13:37;;;;;;;3.55;1.35;;;;;;;26.16;37.24;101980.22;4983621;28;20033;-81
2022/09/16 09:16:35;;;;;;;1.63;1.40;;;;;;;26.50;36.80;101974.69;5006675;28;20068;-81
2022/09/16 09:19:10;;;;;;;3.10;1.23;;;;;;;26.55;36.56;101962.94;4966060;28;20397;-81
2022/09/16 09:21:45;;;;;;;3.75;1.13;;;;;;;25.63;36.67;101984.25;5009443;28;20034;-81
2022/09/16 09:24:25;;;;;;;3.08;1.20;;;;;;;25.61;35.29;101981.72;4997681;28;20034;-80
2022/09/16 09:27:08;;;;;;;3.67;1.30;;;;;;;25.58;35.06;101965.69;4990247;28;20476;-80
2022/09/16 09:29:40;;;;;;;3.88;0.90;;;;;;;23.60;36.36;101969.09;4980405;28;20420;-80
2022/09/16 09:32:27;;;;;;;2.33;1.08;;;;;;;20.84;43.91;101980.00;5004601;28;20177;-80
2022/09/16 09:34:59;;;;;;;4.45;1.08;;;;;;;18.97;48.01;101979.91;5003305;28;20362;-79
2022/09/16 09:37:27;;;;;;;2.97;1.07;;;;;;;18.83;49.78;101990.72;4993841;28;20029;-80
2022/09/16 09:40:08;;;;;;;1.38;1.00;;;;;;;22.15;40.88;101986.91;5008399;28;20754;-80
2022/09/16 09:42:49;;;;;;;0.95;0.60;;;;;;;20.56;42.30;101977.56;4991759;28;20124;-79
2022/09/16 09:45:37;;;;;;;3.17;1.08;;;;;;;23.00;39.75;101986.34;4976058;28;20084;-80
2022/09/16 09:48:16;;;;;;;2.08;1.17;;;;;;;24.43;37.49;101985.78;4994296;28;20507;-79
2022/09/16 09:50:44;;;;;;;3.35;1.17;;;;;;;24.00;35.41;101968.53;4969492;28;20034;-79
2022/09/16 09:53:10;;;;;;;2.38;1.02;;;;;;;24.66;35.83;101988.53;4998499;28;20046;-79
2022/09/16 09:55:37;;;;;;;1.90;1.05;;;;;;;25.19;34.63;101982.03;5006789;28;20029;-81
2022/09/16 09:58:14;;;;;;;2.70;0.95;;;;;;;24.69;35.15;101985.31;4978339;28;20431;-80
2022/09/16 10:00:40;;;;;;;3.53;1.10;;;;;;;24.57;36.16;101990.81;5007588;28;20026;-81
2022/09/16 10:03:13;;;;;;;2.42;1.17;;;;;;;24.91;34.69;101966.25;5010213;28;20550;-80
2022/09/16 10:05:40;;;;;;;2.72;1.30;;;;;;;23.44;38.24;101984.28;4982433;28;20472;-81
2022/09/16 10:08:17;;;;;;;1.40;1.30;;;;;;;24.42;37.41;101982.16;5008084;28;20471;-80
2022/09/16 10:10:55;;;;;;;1.15;1.00;;;;;;;24.68;34.86;101980.06;4989916;28;20046;-80
2022/09/16 10:13:23;;;;;;;1.83;1.20;;;;;;;24.62;36.60;101975.53;5008761;28;20033;-80
2022/09/16 10:16:05;;;;;;;1.40;1.05;;;;;;;24.10;36.17;101963.25;4989041;28;20037;-80
2022/09/16 10:18:32;;;;;;;1.55;1.33;;;;;;;25.07;35.78;101983.09;4988400;28;20048;-82
2022/09/16 10:21:06;;;;;;;3.22;1.33;;;;;;;25.87;34.68;101966.50;5002911;28;20022;-81
2022/09/16 10:23:33;;;;;;;1.52;0.85;;;;;;;25.70;32.15;101989.59;4975867;28;20034;-80
2022/09/16 10:26:22;;;;;;;2.03;1.00;;;;;;;23.82;35.78;101994.16;5009783;28;20068;-79
2022/09/16 10:29:16;;;;;;;2.25;1.10;;;;;;;24.01;36.21;101994.91;4986802;28;20049;-79
2022/09/16 10:31:42;;;;;;;16.50;1.35;;;;;;;20.50;42.34;101988.44;4988803;28;20064;-79
2022/09/16 10:34:19;;;;;;;3.92;1.20;;;;;;;22.78;39.83;101985.94;4992178;28;20061;-80
2022/09/16 10:36:45;;;;;;;1.92;1.10;;;;;;;23.33;38.54;101989.75;4990488;28;20062;-79
2022/09/16 10:39:22;;;;;;;1.67;1.42;;;;;;;25.44;32.57;101978.09;4992330;28;20123;-79
2022/09/16 10:41:49;;;;;;;1.77;0.90;;;;;;;24.94;32.99;101975.94;4987331;28;20476;-80
2022/09/16 10:44:22;;;;;;;1.63;1.27;;;;;;;24.42;35.53;101987.66;4975812;28;20092;-79
2022/09/16 10:46:54;;;;;;;1.60;1.00;;;;;;;25.54;34.86;101994.00;4968790;28;20036;-80
2022/09/16 10:49:42;;;;;;;1.65;1.30;;;;;;;26.23;33.66;101986.41;5007053;28;20030;-80
2022/09/16 10:52:14;;;;;;;1.40;1.05;;;;;;;27.34;32.16;101976.41;4989321;28;20045;-79
2022/09/16 10:54:39;;;;;;;1.77;1.20;;;;;;;28.49;28.53;101965.84;4971024;28;20034;-79
2022/09/16 10:57:28;;;;;;;1.40;0.60;;;;;;;24.68;32.86;101969.88;5005682;28;20092;-79
2022/09/16 11:00:13;;;;;;;1.38;0.90;;;;;;;22.33;38.42;101985.31;4990000;28;20041;-80
2022/09/16 11:03:11;;;;;;;1.35;0.93;;;;;;;22.57;38.86;101970.75;5003296;28;20511;-80
2022/09/16 11:05:52;;;;;;;1.73;1.17;;;;;;;25.76;33.45;101961.88;5003400;28;20042;-79
2022/09/16 11:08:27;;;;;;;0.60;0.60;;;;;;;24.31;35.41;101974.75;4986658;28;20117;-80
2022/09/16 11:11:23;;;;;;;3.53;1.02;;;;;;;22.75;37.79;101983.63;4986523;28;20046;-81
2022/09/16 11:14:04;;;;;;;1.02;0.73;;;;;;;22.12;38.00;101975.53;4986820;28;20119;-81
2022/09/16 11:17:10;;;;;;;1.92;0.70;;;;;;;20.80;41.30;101973.28;4991633;28;20073;-80
2022/09/16 11:19:38;;;;;;;3.38;0.80;;;;;;;19.77;44.24;101975.63;5005123;28;20034;-79
2022/09/16 11:22:11;;;;;;;1.05;0.68;;;;;;;19.21;47.04;101984.88;5002369;28;20038;-81
2022/09/16 11:25:07;;;;;;;3.10;0.83;;;;;;;18.94;48.05;101992.06;4989139;28;20065;-80
2022/09/16 11:27:49;;;;;;;0.88;0.60;;;;;;;19.07;48.69;101983.94;5010523;28;20121;-79
2022/09/16 11:30:20;;;;;;;1.48;0.93;;;;;;;19.90;47.03;101992.03;4995441;28;20039;-80
2022/09/16 11:32:52;;;;;;;0.88;0.80;;;;;;;20.70;44.68;101989.28;4999170;28;20450;-81
2022/09/16 11:35:47;;;;;;;2.55;0.90;;;;;;;21.24;41.97;101984.50;5014777;28;20392;-79
2022/09/16 11:38:21;;;;;;;2.85;0.90;;;;;;;23.82;38.83;101998.81;4957782;28;20529;-79
2022/09/16 11:41:00;;;;;;;1.40;0.80;;;;;;;23.33;37.02;102000.72;5015454;28;20030;-81
2022/09/16 11:43:52;;;;;;;0.82;0.57;;;;;;;22.26;38.34;102001.81;4978805;28;20030;-79
2022/09/16 11:46:33;;;;;;;;;;;;;;;20.84;41.41;101993.66;5010766;28;20114;-80